CDT,Max TemperatureF,Mean TemperatureF,Min TemperatureF,Max Dew PointF,MeanDew PointF,Min DewpointF,Max Humidity, Mean Humidity, Min Humidity, Max Sea Level PressureIn, Mean Sea Level PressureIn, Min Sea Level PressureIn, Max VisibilityMiles, Mean VisibilityMiles, Min VisibilityMiles, Max Wind SpeedMPH, Mean Wind SpeedMPH, Max Gust SpeedMPH,PrecipitationIn, CloudCover, Events, WindDirDegrees
2013-6-1,67,59,50,57,51,43,93,80,66,29.98,29.71,29.57,10,8,1,30,14,36,T,7,,287
2013-6-2,67,58,49,46,42,36,93,63,32,30.11,30.05,29.99,10,9,2,20,8,26,0.01,5,Rain,1
2013-6-3,72,59,45,47,44,39,89,64,38,30.06,29.99,29.90,10,10,10,28,12,35,0.00,1,,147
2013-6-4,62,59,55,57,54,48,93,77,60,30.04,30.00,29.95,10,6,2,30,16,35,0.69,8,Rain-Thunderstorm,138
2013-6-5,67,61,54,56,52,49,100,76,52,30.18,30.00,29.94,10,7,0,16,8,22,0.00,7,Fog,290
2013-6-6,62,57,51,53,50,48,96,80,64,30.03,29.98,29.94,10,7,0,15,9,17,0.00,7,Fog,4
2013-6-7,66,58,50,50,48,45,96,72,48,30.06,30.01,29.93,10,9,7,9,5,13,0.00,6,,331
2013-6-8,61,55,48,57,53,46,93,85,77,29.92,29.86,29.77,10,7,2,26,13,36,0.70,6,Rain,138
2013-6-9,70,65,59,63,59,55,97,83,68,29.80,29.69,29.65,10,7,2,28,11,37,0.16,7,Rain,150
2013-6-10,73,66,59,62,59,57,100,82,64,29.90,29.84,29.80,10,6,0,17,6,20,0.00,5,Fog,330
2013-6-11,86,73,59,67,64,59,97,73,48,29.87,29.82,29.77,10,9,2,18,8,23,0.00,0,Thunderstorm,109
2013-6-12,75,68,60,70,63,54,97,85,72,29.98,29.80,29.70,10,7,2,33,15,39,0.37,6,Rain-Thunderstorm,7
2013-6-13,77,66,54,57,54,50,86,65,43,30.10,30.05,29.99,10,10,10,18,8,22,0.00,0,,23
2013-6-14,78,70,61,64,60,55,84,70,56,30.07,29.94,29.83,10,10,9,33,16,39,0.03,4,Thunderstorm,151
2013-6-15,81,72,62,67,62,57,87,66,45,30.00,29.90,29.84,10,10,7,21,8,26,0.04,3,Rain-Thunderstorm,223
2013-6-16,85,72,58,59,51,43,90,58,25,29.96,29.94,29.90,10,10,7,17,9,22,0.00,0,,286
2013-6-17,87,75,63,56,51,42,78,50,21,29.99,29.95,29.91,10,10,10,28,11,36,0.00,0,,309
2013-6-18,79,69,59,57,55,53,84,64,43,30.06,30.01,29.97,10,10,10,15,8,20,0.00,0,,49
2013-6-19,85,73,61,61,57,54,78,58,37,30.04,29.98,29.91,10,10,9,22,12,26,0.00,0,,164
2013-6-20,89,78,67,65,63,61,87,67,46,29.97,29.91,29.84,10,10,9,30,18,43,0.00,2,,165
2013-6-21,84,73,62,71,67,59,94,77,63,29.96,29.86,29.79,10,10,9,30,17,37,0.00,4,Rain-Thunderstorm,127
2013-6-22,84,74,63,70,64,59,93,74,55,30.05,29.92,29.78,10,8,2,33,9,38,0.35,4,Rain-Thunderstorm,80
2013-6-23,82,74,66,70,65,61,87,71,54,29.91,29.80,29.71,10,9,2,43,10,58,0.44,2,Rain-Thunderstorm,229
2013-6-24,77,70,63,70,65,61,93,79,64,29.93,29.86,29.78,10,8,2,21,7,26,0.05,4,Rain-Thunderstorm,169
2013-6-25,86,77,67,72,67,65,93,72,51,29.82,29.74,29.68,10,8,3,23,10,26,0.00,2,,147
2013-6-26,89,78,67,72,66,56,97,66,34,29.86,29.74,29.65,10,8,2,24,9,31,0.00,2,Thunderstorm,288
2013-6-27,87,77,66,64,59,52,87,58,29,29.92,29.88,29.85,10,10,10,18,10,28,0.00,0,,284
2013-6-28,83,73,62,58,54,51,78,56,34,29.90,29.86,29.83,10,10,10,36,19,47,0.00,1,,319
2013-6-29,79,69,59,59,56,51,84,62,39,29.97,29.87,29.81,10,10,10,29,15,37,T,4,Rain,358
2013-6-30,78,67,55,53,50,42,86,58,29,30.13,30.08,29.99,10,9,6,20,10,28,0.00,0,,14